Captain D — WDH2354 — position and weather

sailwx.info

Track history (hours):
 
Tides and Currents Weather Stations Pressure Air Temp Water Temp Dewpoint Dewpoint Depression Visibility Wind Speed Wind Dir Waves Ship Positions

Captain D

Owner: Gilmerton Tugs LLC/Captain D, Norfolk, VA. More information available from US FCC via Universal Licensing System and Coast Guard Vessel Documentation Center.

Last reported at 2018-Feb-23 18:29 UTC. Time now 2018-Feb-23 18:46 UTC.
Position N 40°48' W 073°52'.

Length 27 m; draft 3.7 m.

Type: Tug. MMSI: 367596760.

Date/timePositionNaut miles runAvg speedWind from/ knotsBaromVisibWave heightAir tempDewpointWater temp
2018-Feb-23 18:29N 40°48' W 073°52'3 6.5
2018-Feb-23 18:00N 40°47' W 073°56'4 7.9
2018-Feb-23 17:30N 40°43' W 073°58'3 6.8
2018-Feb-23 17:00N 40°41' W 074°01'2 4.8
2018-Feb-23 16:30N 40°40' W 074°04'2 4.5
2018-Feb-23 16:00N 40°39' W 074°07'2 4.4
2018-Feb-23 15:30N 40°39' W 074°10'2 3.1
2018-Feb-23 15:00N 40°38' W 074°12'0 0.6
2018-Feb-23 14:30N 40°39' W 074°11'2 4.8
2018-Feb-23 14:00N 40°39' W 074°08'3 5.1
2018-Feb-23 13:30N 40°39' W 074°05'2 4.8
2018-Feb-23 13:00N 40°40' W 074°02'3 5.9
2018-Feb-23 12:30N 40°42' W 073°59'3 6.0
2018-Feb-23 12:00N 40°45' W 073°58'4 7.5
2018-Feb-23 11:30N 40°48' W 073°54'2 4.2
2018-Feb-23 11:00N 40°47' W 073°52'1 0.6
2018-Feb-23 08:57N 40°46' W 073°51'0 0.0
2018-Feb-23 07:49N 40°46' W 073°51'0 0.0
2018-Feb-23 07:30N 40°46' W 073°51'0 0.0
2018-Feb-23 07:00N 40°46' W 073°51'0 0.0
2018-Feb-23 06:26N 40°46' W 073°51'0 0.0
2018-Feb-23 06:00N 40°46' W 073°51'0 0.0
2018-Feb-23 05:29N 40°46' W 073°51'0 0.0
2018-Feb-23 04:32N 40°46' W 073°51'0 0.0
2018-Feb-23 03:42N 40°46' W 073°51'0 0.0
2018-Feb-23 03:27N 40°46' W 073°51'0 0.0
2018-Feb-23 02:45N 40°46' W 073°51'0 0.0
2018-Feb-23 02:30N 40°46' W 073°51'0 0.0
2018-Feb-23 01:58N 40°46' W 073°51'0 0.0
2018-Feb-23 01:30N 40°46' W 073°51'0 0.0
2018-Feb-23 01:00N 40°46' W 073°51'0 0.1
2018-Feb-23 00:30N 40°46' W 073°51'0 0.0
2018-Feb-23 00:00N 40°46' W 073°51'0 0.0
2018-Feb-22 23:30N 40°46' W 073°51'0 0.0
2018-Feb-22 23:00N 40°46' W 073°51'0 0.0
2018-Feb-22 22:30N 40°46' W 073°51'0 0.0
2018-Feb-22 21:59N 40°46' W 073°51'0 0.0
2018-Feb-22 21:25N 40°46' W 073°51'0 0.0
2018-Feb-22 20:58N 40°46' W 073°51'0 0.0
2018-Feb-22 20:29N 40°46' W 073°51'1 1.4
2018-Feb-22 19:58N 40°47' W 073°51'2 4.4
2018-Feb-22 19:28N 40°48' W 073°54'3 6.2
2018-Feb-22 18:59N 40°46' W 073°57'3 7.0
2018-Feb-22 18:30N 40°43' W 073°58'3 6.3
2018-Feb-22 18:00N 40°41' W 074°02'3 5.4
2018-Feb-22 17:30N 40°39' W 074°05'3 5.3
2018-Feb-22 16:59N 40°39' W 074°08'2 5.1
2018-Feb-22 16:30N 40°39' W 074°11'0 0.5
2018-Feb-22 16:00N 40°38' W 074°12'0 0.0
2018-Feb-22 15:30N 40°38' W 074°12'0 0.1
2018-Feb-22 15:00N 40°38' W 074°12'2 3.2
2018-Feb-22 14:28N 40°39' W 074°09'3 6.2
2018-Feb-22 14:00N 40°39' W 074°06'3 5.6
2018-Feb-22 13:30N 40°40' W 074°03'3 5.8
2018-Feb-22 13:00N 40°42' W 073°60'3 5.0
2018-Feb-22 12:30N 40°45' W 073°58'4 6.8
2018-Feb-22 11:59N 40°47' W 073°55'2 5.0
2018-Feb-22 11:30N 40°48' W 073°52'2 3.6
2018-Feb-22 10:59N 40°46' W 073°51'0 0.1
2018-Feb-22 10:22N 40°46' W 073°51'0 0.0
2018-Feb-22 09:58N 40°46' W 073°51'0 0.0
2018-Feb-22 09:28N 40°46' W 073°51'0 0.0
2018-Feb-22 08:52N 40°46' W 073°51'0 0.0
2018-Feb-22 08:28N 40°46' W 073°51'0 0.0
2018-Feb-22 07:52N 40°46' W 073°51'0 0.0
2018-Feb-22 07:28N 40°46' W 073°51'0 0.0
2018-Feb-22 06:49N 40°46' W 073°51'0 0.0
2018-Feb-22 05:30N 40°46' W 073°51'0 0.1
2018-Feb-22 05:00N 40°46' W 073°51'2 4.3
2018-Feb-22 04:28N 40°48' W 073°53'3 6.7
2018-Feb-22 04:00N 40°46' W 073°57'4 7.5
2018-Feb-22 03:30N 40°43' W 073°58'3 6.6
2018-Feb-22 03:00N 40°41' W 074°01'2 4.5
2018-Feb-22 02:30N 40°40' W 074°04'2 4.0
2018-Feb-22 02:00N 40°39' W 074°06'2 3.5
2018-Feb-22 01:30N 40°38' W 074°09'2 4.1
2018-Feb-22 01:00N 40°38' W 074°11'0 0.3
2018-Feb-22 00:26N 40°38' W 074°12'0 0.0
2018-Feb-21 23:59N 40°38' W 074°12'0 0.0
2018-Feb-21 23:20N 40°38' W 074°12'0 0.0
2018-Feb-21 22:56N 40°38' W 074°12'0 0.0
2018-Feb-21 22:29N 40°38' W 074°12'0 0.1
2018-Feb-21 22:00N 40°38' W 074°12'1 2.8
2018-Feb-21 21:30N 40°39' W 074°10'2 4.7
2018-Feb-21 21:00N 40°39' W 074°07'2 4.1
2018-Feb-21 20:31N 40°39' W 074°04'3 6.2
2018-Feb-21 20:01N 40°41' W 074°01'3 6.9
2018-Feb-21 19:30N 40°44' W 073°58'3 6.5
2018-Feb-21 18:59N 40°47' W 073°56'3 4.7
2018-Feb-21 18:27N 40°48' W 073°53'2 3.7
2018-Feb-21 18:00N 40°47' W 073°52'1 0.2
2018-Feb-21 14:37N 40°46' W 073°51'0 0.0
2018-Feb-21 14:19N 40°46' W 073°51'0 0.0
2018-Feb-21 13:34N 40°46' W 073°51'0 0.0
2018-Feb-21 13:13N 40°46' W 073°51'0 0.0
2018-Feb-21 12:55N 40°46' W 073°51'0 0.0
2018-Feb-21 10:49N 40°46' W 073°51'0 0.0
2018-Feb-21 10:19N 40°46' W 073°51'0 0.0
2018-Feb-21 09:49N 40°46' W 073°51'0 0.1
2018-Feb-21 09:28N 40°46' W 073°51'0 0.1
2018-Feb-21 08:58N 40°46' W 073°51'0 0.0
2018-Feb-21 08:25N 40°46' W 073°51'0 0.0
2018-Feb-21 07:58N 40°46' W 073°51'0 0.0
2018-Feb-21 07:19N 40°46' W 073°51'0 0.0
2018-Feb-21 06:55N 40°46' W 073°51'0 0.0
2018-Feb-21 06:13N 40°46' W 073°51'0 0.0
2018-Feb-21 05:52N 40°46' W 073°51'0 0.0
2018-Feb-21 05:16N 40°46' W 073°51'0 0.0
2018-Feb-21 04:57N 40°46' W 073°51'0 0.6
2018-Feb-21 04:28N 40°46' W 073°51'2 4.3
2018-Feb-21 04:00N 40°48' W 073°53'3 6.8
2018-Feb-21 03:30N 40°46' W 073°57'4 7.3
2018-Feb-21 03:00N 40°43' W 073°58'4 7.1
2018-Feb-21 02:30N 40°41' W 074°02'3 5.3
2018-Feb-21 02:00N 40°39' W 074°05'2 4.1
2018-Feb-21 01:25N 40°39' W 074°08'2 4.6
2018-Feb-21 01:00N 40°39' W 074°11'1 1.8
2018-Feb-21 00:30N 40°38' W 074°12'1 2.6
2018-Feb-21 00:00N 40°39' W 074°10'3 5.3
2018-Feb-20 23:30N 40°39' W 074°07'2 4.9
2018-Feb-20 23:00N 40°40' W 074°04'3 5.6
2018-Feb-20 22:30N 40°41' W 074°01'3 6.2
2018-Feb-20 22:00N 40°44' W 073°58'4 7.4
2018-Feb-20 21:30N 40°47' W 073°55'3 4.9
2018-Feb-20 20:58N 40°48' W 073°52'2 3.8
2018-Feb-20 20:29N 40°46' W 073°51'0 0.1
2018-Feb-20 19:39N 40°46' W 073°51'0 0.0
2018-Feb-20 19:30N 40°46' W 073°51'0 0.0
2018-Feb-20 18:57N 40°46' W 073°51'0 0.0
2018-Feb-20 15:15N 40°46' W 073°51'0 0.0
2018-Feb-19 15:09N 40°46' W 073°51'0 0.0
2018-Feb-19 11:36N 40°46' W 073°51'0 0.0
2018-Feb-19 11:27N 40°46' W 073°51'0 0.0
2018-Feb-19 10:42N 40°46' W 073°51'0 0.0
2018-Feb-19 10:30N 40°46' W 073°51'0 0.0
2018-Feb-19 10:00N 40°46' W 073°51'0 0.0
2018-Feb-19 09:27N 40°46' W 073°51'0 0.0
2018-Feb-19 09:00N 40°46' W 073°51'0 0.0
2018-Feb-19 08:24N 40°46' W 073°51'0 0.0
2018-Feb-19 07:48N 40°46' W 073°51'0 0.0
2018-Feb-19 07:30N 40°46' W 073°51'0 0.0
2018-Feb-19 07:00N 40°46' W 073°51'0 0.0
2018-Feb-19 06:30N 40°46' W 073°51'0 0.0
2018-Feb-19 05:54N 40°46' W 073°51'0 0.0
2018-Feb-19 05:30N 40°46' W 073°51'0 0.0
2018-Feb-19 05:00N 40°46' W 073°51'0 0.0
2018-Feb-19 04:30N 40°46' W 073°51'0 0.0
2018-Feb-19 04:00N 40°46' W 073°51'0 0.0
2018-Feb-19 03:30N 40°46' W 073°51'0 0.0
2018-Feb-19 03:00N 40°46' W 073°51'0 0.0
2018-Feb-19 02:30N 40°46' W 073°51'0 0.0
2018-Feb-19 02:00N 40°46' W 073°51'0 0.0
2018-Feb-19 01:30N 40°46' W 073°51'0 0.0
2018-Feb-19 01:00N 40°46' W 073°51'0 0.0
2018-Feb-19 00:30N 40°46' W 073°51'0 0.0
2018-Feb-19 00:00N 40°46' W 073°51'0 0.0
2018-Feb-18 23:30N 40°46' W 073°51'0 0.0
2018-Feb-18 23:00N 40°46' W 073°51'0 0.0
2018-Feb-18 22:30N 40°46' W 073°51'0 0.0
2018-Feb-18 22:00N 40°46' W 073°51'0 0.0
2018-Feb-18 21:24N 40°46' W 073°51'0 0.0
2018-Feb-18 21:00N 40°46' W 073°51'0 0.0
2018-Feb-18 20:27N 40°46' W 073°51'0 0.0
2018-Feb-18 20:00N 40°46' W 073°51'0 0.0
2018-Feb-18 19:24N 40°46' W 073°51'0 0.0
2018-Feb-18 19:00N 40°46' W 073°51'0 0.0
2018-Feb-18 18:30N 40°46' W 073°51'0 0.0
2018-Feb-18 18:00N 40°46' W 073°51'0 0.0
2018-Feb-18 17:30N 40°46' W 073°51'0 0.0
2018-Feb-18 17:00N 40°46' W 073°51'0 0.0
2018-Feb-18 16:30N 40°46' W 073°51'0 0.0
2018-Feb-18 16:00N 40°46' W 073°51'0 0.0
2018-Feb-18 15:30N 40°46' W 073°51'0 0.0
2018-Feb-18 14:51N 40°46' W 073°51'0 0.0
2018-Feb-18 14:30N 40°46' W 073°51'0 0.0
2018-Feb-18 14:00N 40°46' W 073°51'0 0.0
2018-Feb-18 13:30N 40°46' W 073°51'0 0.0
2018-Feb-18 13:00N 40°46' W 073°51'0 0.0
2018-Feb-18 12:30N 40°46' W 073°51'0 0.0
2018-Feb-18 12:00N 40°46' W 073°51'0 0.0
2018-Feb-18 11:30N 40°46' W 073°51'0 0.0
2018-Feb-18 11:00N 40°46' W 073°51'0 0.0
2018-Feb-18 10:30N 40°46' W 073°51'0 0.0
2018-Feb-18 10:00N 40°46' W 073°51'0 0.0
2018-Feb-18 09:30N 40°46' W 073°51'0 0.0
2018-Feb-18 09:00N 40°46' W 073°51'0 0.0
2018-Feb-18 08:30N 40°46' W 073°51'0 0.0
2018-Feb-18 08:00N 40°46' W 073°51'0 0.0
2018-Feb-18 07:18N 40°46' W 073°51'0 0.0
2018-Feb-18 07:00N 40°46' W 073°51'0 0.0
2018-Feb-18 06:30N 40°46' W 073°51'0 0.0
2018-Feb-18 05:48N 40°46' W 073°51'0 0.0
2018-Feb-18 05:30N 40°46' W 073°51'0 0.0
2018-Feb-18 05:00N 40°46' W 073°51'0 0.0
2018-Feb-18 04:30N 40°46' W 073°51'0 0.0
2018-Feb-18 04:00N 40°46' W 073°51'0 0.0
2018-Feb-18 03:30N 40°46' W 073°51'0 0.0
2018-Feb-18 02:54N 40°46' W 073°51'0 0.0
2018-Feb-18 02:30N 40°46' W 073°51'0 0.0
2018-Feb-18 02:00N 40°46' W 073°51'0 0.0
2018-Feb-18 01:27N 40°46' W 073°51'0 0.0
2018-Feb-17 22:57N 40°46' W 073°51'0 0.0
2018-Feb-17 15:45N 40°46' W 073°51'0 0.0
2018-Feb-17 15:27N 40°46' W 073°51'0 0.0
2018-Feb-17 14:57N 40°46' W 073°51'0 0.0
2018-Feb-17 14:27N 40°46' W 073°51'0 0.0
2018-Feb-17 12:57N 40°46' W 073°51'0 0.0
2018-Feb-17 12:09N 40°46' W 073°51'0 0.0
2018-Feb-17 11:39N 40°46' W 073°51'0 0.0
2018-Feb-17 11:21N 40°46' W 073°51'0 0.0
2018-Feb-17 10:57N 40°46' W 073°51'0 0.0
2018-Feb-17 10:28N 40°46' W 073°51'0 0.0
2018-Feb-17 09:58N 40°46' W 073°51'0 0.0
2018-Feb-17 09:28N 40°46' W 073°51'0 0.0
2018-Feb-17 08:58N 40°46' W 073°51'0 0.0
2018-Feb-17 08:28N 40°46' W 073°51'0 0.0
2018-Feb-17 07:55N 40°46' W 073°51'0 0.0
2018-Feb-17 07:28N 40°46' W 073°51'0 0.0
2018-Feb-17 06:55N 40°46' W 073°51'0 0.0
2018-Feb-17 06:28N 40°46' W 073°51'0 0.0
2018-Feb-17 05:58N 40°46' W 073°51'0 0.0
2018-Feb-17 05:25N 40°46' W 073°51'0 0.0
2018-Feb-17 04:58N 40°46' W 073°51'0 0.0
2018-Feb-17 04:28N 40°46' W 073°51'0 0.0
2018-Feb-17 03:58N 40°46' W 073°51'0 0.0
2018-Feb-17 03:28N 40°46' W 073°51'0 0.0
2018-Feb-17 02:58N 40°46' W 073°51'0 0.0
2018-Feb-17 02:28N 40°46' W 073°51'0 0.1
2018-Feb-17 01:58N 40°46' W 073°51'2 4.4
2018-Feb-17 01:30N 40°48' W 073°53'3 6.9
2018-Feb-17 01:00N 40°46' W 073°57'4 7.5
2018-Feb-17 00:30N 40°43' W 073°58'3 6.5
2018-Feb-17 00:00N 40°41' W 074°02'2 4.6
2018-Feb-16 23:30N 40°39' W 074°04'2 3.9
2018-Feb-16 22:59N 40°39' W 074°07'2 3.6
2018-Feb-16 22:29N 40°39' W 074°09'2 3.9
2018-Feb-16 22:00N 40°38' W 074°12'0 0.7
2018-Feb-16 21:30N 40°39' W 074°11'2 4.8
2018-Feb-16 21:00N 40°39' W 074°08'2 4.6
2018-Feb-16 20:30N 40°39' W 074°05'2 5.0
2018-Feb-16 20:00N 40°40' W 074°02'3 5.7
2018-Feb-16 19:30N 40°42' W 073°60'3 5.9
2018-Feb-16 19:00N 40°45' W 073°58'4 7.2
2018-Feb-16 18:30N 40°48' W 073°55'2 4.6
2018-Feb-16 18:00N 40°48' W 073°52'2 3.2
2018-Feb-16 17:30N 40°46' W 073°51'0 0.0
2018-Feb-16 16:23N 40°46' W 073°51'0 0.0
2018-Feb-16 15:20N 40°46' W 073°51'0 0.0
2018-Feb-16 14:56N 40°46' W 073°51'0 0.0
2018-Feb-16 14:23N 40°46' W 073°51'0 0.0
2018-Feb-16 13:56N 40°46' W 073°51'0 0.0
2018-Feb-16 12:38N 40°46' W 073°51'0 0.0
2018-Feb-16 12:20N 40°46' W 073°51'0 0.0
2018-Feb-16 11:56N 40°46' W 073°51'0 0.0
2018-Feb-16 11:26N 40°46' W 073°51'0 0.0
2018-Feb-16 10:56N 40°46' W 073°51'0 0.0
2018-Feb-16 10:26N 40°46' W 073°51'0 0.0
2018-Feb-16 09:56N 40°46' W 073°51'0 0.0
2018-Feb-16 09:14N 40°46' W 073°51'0 0.0
2018-Feb-16 08:59N 40°46' W 073°51'0 0.0
2018-Feb-16 08:30N 40°46' W 073°51'0 0.0
2018-Feb-16 07:44N 40°46' W 073°51'0 0.0
2018-Feb-16 07:26N 40°46' W 073°51'0 0.0
2018-Feb-16 06:53N 40°46' W 073°51'0 0.0
2018-Feb-16 06:23N 40°46' W 073°51'0 0.0
2018-Feb-16 05:59N 40°46' W 073°51'0 0.0
2018-Feb-16 05:29N 40°46' W 073°51'0 0.0
2018-Feb-16 04:54N 40°46' W 073°51'0 0.0
2018-Feb-16 04:23N 40°46' W 073°51'0 0.0
2018-Feb-16 03:59N 40°46' W 073°51'0 0.0
2018-Feb-16 02:50N 40°46' W 073°51'0 0.0
2018-Feb-16 02:26N 40°46' W 073°51'0 0.0
2018-Feb-16 01:53N 40°46' W 073°51'0 0.0
2018-Feb-16 01:29N 40°46' W 073°51'1 2.4
2018-Feb-16 01:00N 40°47' W 073°52'2 4.3
2018-Feb-16 00:30N 40°48' W 073°54'4 8.5
2018-Feb-16 00:00N 40°45' W 073°58'3 6.7
2018-Feb-15 23:30N 40°42' W 074°00'3 6.2
2018-Feb-15 23:00N 40°39' W 074°03'3 4.8
2018-Feb-15 22:29N 40°39' W 074°06'2 4.2
2018-Feb-15 21:59N 40°39' W 074°09'2 3.9
2018-Feb-15 21:29N 40°38' W 074°12'0 0.1
2018-Feb-15 21:00N 40°38' W 074°12'2 4.0
2018-Feb-15 20:30N 40°39' W 074°09'3 5.1
2018-Feb-15 20:00N 40°39' W 074°06'2 5.0
2018-Feb-15 19:30N 40°40' W 074°03'3 5.6
2018-Feb-15 19:00N 40°42' W 074°00'3 5.4
2018-Feb-15 18:30N 40°44' W 073°58'4 7.3
2018-Feb-15 17:59N 40°47' W 073°55'2 5.0
2018-Feb-15 17:30N 40°48' W 073°52'2 0.2
2018-Feb-15 09:38N 40°46' W 073°51'0 0.0
2018-Feb-15 09:20N 40°46' W 073°51'0 0.0
2018-Feb-15 08:57N 40°46' W 073°51'0 0.0
2018-Feb-15 05:44N 40°46' W 073°51'0 0.0
2018-Feb-15 05:20N 40°46' W 073°51'0 0.0
2018-Feb-15 03:32N 40°46' W 073°51'0 0.0
2018-Feb-15 03:14N 40°46' W 073°51'0 0.0
2018-Feb-15 02:47N 40°46' W 073°51'0 0.0
2018-Feb-15 01:38N 40°46' W 073°51'0 0.0
2018-Feb-15 01:21N 40°46' W 073°51'0 0.7
2018-Feb-15 01:00N 40°46' W 073°51'2 4.0
2018-Feb-15 00:30N 40°48' W 073°53'3 6.2
2018-Feb-14 23:57N 40°46' W 073°57'3 6.8
2018-Feb-14 23:30N 40°43' W 073°58'3 6.5
2018-Feb-14 23:00N 40°41' W 074°01'3 5.2
2018-Feb-14 22:30N 40°39' W 074°03'2 4.4
2018-Feb-14 22:00N 40°39' W 074°06'2 3.6
2018-Feb-14 21:30N 40°38' W 074°09'2 4.6
2018-Feb-14 21:00N 40°38' W 074°12'0 0.0
2018-Feb-14 20:30N 40°38' W 074°12'2 3.7
2018-Feb-14 20:00N 40°39' W 074°09'3 5.3
2018-Feb-14 19:30N 40°39' W 074°06'3 5.0
2018-Feb-14 19:00N 40°40' W 074°03'3 6.0
2018-Feb-14 18:30N 40°42' W 074°00'3 5.9
2018-Feb-14 18:00N 40°45' W 073°58'4 7.6
2018-Feb-14 17:30N 40°48' W 073°55'2 4.3
2018-Feb-14 17:00N 40°48' W 073°52'2 3.3
2018-Feb-14 16:28N 40°46' W 073°51'2 2.5
2018-Feb-14 15:42N 40°48' W 073°52'1 3.4
2018-Feb-14 15:30N 40°47' W 073°52'2 1.1
2018-Feb-14 14:06N 40°46' W 073°51'0 2.5
2018-Feb-14 13:58N 40°46' W 073°51'0 0.0
2018-Feb-14 13:31N 40°46' W 073°51'0 0.0
2018-Feb-14 12:34N 40°46' W 073°51'0 0.1
2018-Feb-14 12:28N 40°46' W 073°51'0 0.0
2018-Feb-14 11:58N 40°46' W 073°51'0 0.0
2018-Feb-14 11:28N 40°46' W 073°51'0 0.0
2018-Feb-14 10:58N 40°46' W 073°51'0 0.0
2018-Feb-14 08:19N 40°46' W 073°51'0 0.0
2018-Feb-14 01:22N 40°46' W 073°51'0 0.0
2018-Feb-13 23:55N 40°46' W 073°51'1 2.1
2018-Feb-13 23:29N 40°47' W 073°52'2 4.6
2018-Feb-13 22:59N 40°48' W 073°54'4 8.3
2018-Feb-13 22:30N 40°45' W 073°58'3 6.7
2018-Feb-13 21:59N 40°42' W 074°00'3 5.9
2018-Feb-13 21:31N 40°40' W 074°03'2 4.6
2018-Feb-13 21:01N 40°39' W 074°05'2 4.0
2018-Feb-13 20:28N 40°39' W 074°08'2 4.3
2018-Feb-13 20:00N 40°39' W 074°11'1 1.6
2018-Feb-13 19:27N 40°38' W 074°12'0 0.0
2018-Feb-13 19:00N 40°38' W 074°12'  
Track history (hours):
 
Tides and Currents Weather Stations Pressure Air Temp Water Temp Dewpoint Dewpoint Depression Visibility Wind Speed Wind Dir Waves Ship Positions

Captain D

Owner: Gilmerton Tugs LLC/Captain D, Norfolk, VA. More information available from US FCC via Universal Licensing System and Coast Guard Vessel Documentation Center.

Last reported at 2018-Feb-23 18:29 UTC. Time now 2018-Feb-23 18:46 UTC.
Position N 40°48' W 073°52'.

Length 27 m; draft 3.7 m.

Type: Tug. MMSI: 367596760.

Date/timePositionNaut miles runAvg speedWind from/ knotsBaromVisibWave heightAir tempDewpointWater temp
2018-Feb-23 18:29N 40°48' W 073°52'3 6.5
2018-Feb-23 18:00N 40°47' W 073°56'4 7.9
2018-Feb-23 17:30N 40°43' W 073°58'3 6.8
2018-Feb-23 17:00N 40°41' W 074°01'2 4.8
2018-Feb-23 16:30N 40°40' W 074°04'2 4.5
2018-Feb-23 16:00N 40°39' W 074°07'2 4.4
2018-Feb-23 15:30N 40°39' W 074°10'2 3.1
2018-Feb-23 15:00N 40°38' W 074°12'0 0.6
2018-Feb-23 14:30N 40°39' W 074°11'2 4.8
2018-Feb-23 14:00N 40°39' W 074°08'3 5.1
2018-Feb-23 13:30N 40°39' W 074°05'2 4.8
2018-Feb-23 13:00N 40°40' W 074°02'3 5.9
2018-Feb-23 12:30N 40°42' W 073°59'3 6.0
2018-Feb-23 12:00N 40°45' W 073°58'4 7.5
2018-Feb-23 11:30N 40°48' W 073°54'2 4.2
2018-Feb-23 11:00N 40°47' W 073°52'1 0.6
2018-Feb-23 08:57N 40°46' W 073°51'0 0.0
2018-Feb-23 07:49N 40°46' W 073°51'0 0.0
2018-Feb-23 07:30N 40°46' W 073°51'0 0.0
2018-Feb-23 07:00N 40°46' W 073°51'0 0.0
2018-Feb-23 06:26N 40°46' W 073°51'0 0.0
2018-Feb-23 06:00N 40°46' W 073°51'0 0.0
2018-Feb-23 05:29N 40°46' W 073°51'0 0.0
2018-Feb-23 04:32N 40°46' W 073°51'0 0.0
2018-Feb-23 03:42N 40°46' W 073°51'0 0.0
2018-Feb-23 03:27N 40°46' W 073°51'0 0.0
2018-Feb-23 02:45N 40°46' W 073°51'0 0.0
2018-Feb-23 02:30N 40°46' W 073°51'0 0.0
2018-Feb-23 01:58N 40°46' W 073°51'0 0.0
2018-Feb-23 01:30N 40°46' W 073°51'0 0.0
2018-Feb-23 01:00N 40°46' W 073°51'0 0.1
2018-Feb-23 00:30N 40°46' W 073°51'0 0.0
2018-Feb-23 00:00N 40°46' W 073°51'0 0.0
2018-Feb-22 23:30N 40°46' W 073°51'0 0.0
2018-Feb-22 23:00N 40°46' W 073°51'0 0.0
2018-Feb-22 22:30N 40°46' W 073°51'0 0.0
2018-Feb-22 21:59N 40°46' W 073°51'0 0.0
2018-Feb-22 21:25N 40°46' W 073°51'0 0.0
2018-Feb-22 20:58N 40°46' W 073°51'0 0.0
2018-Feb-22 20:29N 40°46' W 073°51'1 1.4
2018-Feb-22 19:58N 40°47' W 073°51'2 4.4
2018-Feb-22 19:28N 40°48' W 073°54'3 6.2
2018-Feb-22 18:59N 40°46' W 073°57'3 7.0
2018-Feb-22 18:30N 40°43' W 073°58'3 6.3
2018-Feb-22 18:00N 40°41' W 074°02'3 5.4
2018-Feb-22 17:30N 40°39' W 074°05'3 5.3
2018-Feb-22 16:59N 40°39' W 074°08'2 5.1
2018-Feb-22 16:30N 40°39' W 074°11'0 0.5
2018-Feb-22 16:00N 40°38' W 074°12'0 0.0
2018-Feb-22 15:30N 40°38' W 074°12'0 0.1
2018-Feb-22 15:00N 40°38' W 074°12'2 3.2
2018-Feb-22 14:28N 40°39' W 074°09'3 6.2
2018-Feb-22 14:00N 40°39' W 074°06'3 5.6
2018-Feb-22 13:30N 40°40' W 074°03'3 5.8
2018-Feb-22 13:00N 40°42' W 073°60'3 5.0
2018-Feb-22 12:30N 40°45' W 073°58'4 6.8
2018-Feb-22 11:59N 40°47' W 073°55'2 5.0
2018-Feb-22 11:30N 40°48' W 073°52'2 3.6
2018-Feb-22 10:59N 40°46' W 073°51'0 0.1
2018-Feb-22 10:22N 40°46' W 073°51'0 0.0
2018-Feb-22 09:58N 40°46' W 073°51'0 0.0
2018-Feb-22 09:28N 40°46' W 073°51'0 0.0
2018-Feb-22 08:52N 40°46' W 073°51'0 0.0
2018-Feb-22 08:28N 40°46' W 073°51'0 0.0
2018-Feb-22 07:52N 40°46' W 073°51'0 0.0
2018-Feb-22 07:28N 40°46' W 073°51'0 0.0
2018-Feb-22 06:49N 40°46' W 073°51'0 0.0
2018-Feb-22 05:30N 40°46' W 073°51'0 0.1
2018-Feb-22 05:00N 40°46' W 073°51'2 4.3
2018-Feb-22 04:28N 40°48' W 073°53'3 6.7
2018-Feb-22 04:00N 40°46' W 073°57'4 7.5
2018-Feb-22 03:30N 40°43' W 073°58'3 6.6
2018-Feb-22 03:00N 40°41' W 074°01'2 4.5
2018-Feb-22 02:30N 40°40' W 074°04'2 4.0
2018-Feb-22 02:00N 40°39' W 074°06'2 3.5
2018-Feb-22 01:30N 40°38' W 074°09'2 4.1
2018-Feb-22 01:00N 40°38' W 074°11'0 0.3
2018-Feb-22 00:26N 40°38' W 074°12'0 0.0
2018-Feb-21 23:59N 40°38' W 074°12'0 0.0
2018-Feb-21 23:20N 40°38' W 074°12'0 0.0
2018-Feb-21 22:56N 40°38' W 074°12'0 0.0
2018-Feb-21 22:29N 40°38' W 074°12'0 0.1
2018-Feb-21 22:00N 40°38' W 074°12'1 2.8
2018-Feb-21 21:30N 40°39' W 074°10'2 4.7
2018-Feb-21 21:00N 40°39' W 074°07'2 4.1
2018-Feb-21 20:31N 40°39' W 074°04'3 6.2
2018-Feb-21 20:01N 40°41' W 074°01'3 6.9
2018-Feb-21 19:30N 40°44' W 073°58'3 6.5
2018-Feb-21 18:59N 40°47' W 073°56'3 4.7
2018-Feb-21 18:27N 40°48' W 073°53'2 3.7
2018-Feb-21 18:00N 40°47' W 073°52'1 0.2
2018-Feb-21 14:37N 40°46' W 073°51'0 0.0
2018-Feb-21 14:19N 40°46' W 073°51'0 0.0
2018-Feb-21 13:34N 40°46' W 073°51'0 0.0
2018-Feb-21 13:13N 40°46' W 073°51'0 0.0
2018-Feb-21 12:55N 40°46' W 073°51'0 0.0
2018-Feb-21 10:49N 40°46' W 073°51'0 0.0
2018-Feb-21 10:19N 40°46' W 073°51'0 0.0
2018-Feb-21 09:49N 40°46' W 073°51'0 0.1
2018-Feb-21 09:28N 40°46' W 073°51'0 0.1
2018-Feb-21 08:58N 40°46' W 073°51'0 0.0
2018-Feb-21 08:25N 40°46' W 073°51'0 0.0
2018-Feb-21 07:58N 40°46' W 073°51'0 0.0
2018-Feb-21 07:19N 40°46' W 073°51'0 0.0
2018-Feb-21 06:55N 40°46' W 073°51'0 0.0
2018-Feb-21 06:13N 40°46' W 073°51'0 0.0
2018-Feb-21 05:52N 40°46' W 073°51'0 0.0
2018-Feb-21 05:16N 40°46' W 073°51'0 0.0
2018-Feb-21 04:57N 40°46' W 073°51'0 0.6
2018-Feb-21 04:28N 40°46' W 073°51'2 4.3
2018-Feb-21 04:00N 40°48' W 073°53'3 6.8
2018-Feb-21 03:30N 40°46' W 073°57'4 7.3
2018-Feb-21 03:00N 40°43' W 073°58'4 7.1
2018-Feb-21 02:30N 40°41' W 074°02'3 5.3
2018-Feb-21 02:00N 40°39' W 074°05'2 4.1
2018-Feb-21 01:25N 40°39' W 074°08'2 4.6
2018-Feb-21 01:00N 40°39' W 074°11'1 1.8
2018-Feb-21 00:30N 40°38' W 074°12'1 2.6
2018-Feb-21 00:00N 40°39' W 074°10'3 5.3
2018-Feb-20 23:30N 40°39' W 074°07'2 4.9
2018-Feb-20 23:00N 40°40' W 074°04'3 5.6
2018-Feb-20 22:30N 40°41' W 074°01'3 6.2
2018-Feb-20 22:00N 40°44' W 073°58'4 7.4
2018-Feb-20 21:30N 40°47' W 073°55'3 4.9
2018-Feb-20 20:58N 40°48' W 073°52'2 3.8
2018-Feb-20 20:29N 40°46' W 073°51'0 0.1
2018-Feb-20 19:39N 40°46' W 073°51'0 0.0
2018-Feb-20 19:30N 40°46' W 073°51'0 0.0
2018-Feb-20 18:57N 40°46' W 073°51'0 0.0
2018-Feb-20 15:15N 40°46' W 073°51'0 0.0
2018-Feb-19 15:09N 40°46' W 073°51'0 0.0
2018-Feb-19 11:36N 40°46' W 073°51'0 0.0
2018-Feb-19 11:27N 40°46' W 073°51'0 0.0
2018-Feb-19 10:42N 40°46' W 073°51'0 0.0
2018-Feb-19 10:30N 40°46' W 073°51'0 0.0
2018-Feb-19 10:00N 40°46' W 073°51'0 0.0
2018-Feb-19 09:27N 40°46' W 073°51'0 0.0
2018-Feb-19 09:00N 40°46' W 073°51'0 0.0
2018-Feb-19 08:24N 40°46' W 073°51'0 0.0
2018-Feb-19 07:48N 40°46' W 073°51'0 0.0
2018-Feb-19 07:30N 40°46' W 073°51'0 0.0
2018-Feb-19 07:00N 40°46' W 073°51'0 0.0
2018-Feb-19 06:30N 40°46' W 073°51'0 0.0
2018-Feb-19 05:54N 40°46' W 073°51'0 0.0
2018-Feb-19 05:30N 40°46' W 073°51'0 0.0
2018-Feb-19 05:00N 40°46' W 073°51'0 0.0
2018-Feb-19 04:30N 40°46' W 073°51'0 0.0
2018-Feb-19 04:00N 40°46' W 073°51'0 0.0
2018-Feb-19 03:30N 40°46' W 073°51'0 0.0
2018-Feb-19 03:00N 40°46' W 073°51'0 0.0
2018-Feb-19 02:30N 40°46' W 073°51'0 0.0
2018-Feb-19 02:00N 40°46' W 073°51'0 0.0
2018-Feb-19 01:30N 40°46' W 073°51'0 0.0
2018-Feb-19 01:00N 40°46' W 073°51'0 0.0
2018-Feb-19 00:30N 40°46' W 073°51'0 0.0
2018-Feb-19 00:00N 40°46' W 073°51'0 0.0
2018-Feb-18 23:30N 40°46' W 073°51'0 0.0
2018-Feb-18 23:00N 40°46' W 073°51'0 0.0
2018-Feb-18 22:30N 40°46' W 073°51'0 0.0
2018-Feb-18 22:00N 40°46' W 073°51'0 0.0
2018-Feb-18 21:24N 40°46' W 073°51'0 0.0
2018-Feb-18 21:00N 40°46' W 073°51'0 0.0
2018-Feb-18 20:27N 40°46' W 073°51'0 0.0
2018-Feb-18 20:00N 40°46' W 073°51'0 0.0
2018-Feb-18 19:24N 40°46' W 073°51'0 0.0
2018-Feb-18 19:00N 40°46' W 073°51'0 0.0
2018-Feb-18 18:30N 40°46' W 073°51'0 0.0
2018-Feb-18 18:00N 40°46' W 073°51'0 0.0
2018-Feb-18 17:30N 40°46' W 073°51'0 0.0
2018-Feb-18 17:00N 40°46' W 073°51'0 0.0
2018-Feb-18 16:30N 40°46' W 073°51'0 0.0
2018-Feb-18 16:00N 40°46' W 073°51'0 0.0
2018-Feb-18 15:30N 40°46' W 073°51'0 0.0
2018-Feb-18 14:51N 40°46' W 073°51'0 0.0
2018-Feb-18 14:30N 40°46' W 073°51'0 0.0
2018-Feb-18 14:00N 40°46' W 073°51'0 0.0
2018-Feb-18 13:30N 40°46' W 073°51'0 0.0
2018-Feb-18 13:00N 40°46' W 073°51'0 0.0
2018-Feb-18 12:30N 40°46' W 073°51'0 0.0
2018-Feb-18 12:00N 40°46' W 073°51'0 0.0
2018-Feb-18 11:30N 40°46' W 073°51'0 0.0
2018-Feb-18 11:00N 40°46' W 073°51'0 0.0
2018-Feb-18 10:30N 40°46' W 073°51'0 0.0
2018-Feb-18 10:00N 40°46' W 073°51'0 0.0
2018-Feb-18 09:30N 40°46' W 073°51'0 0.0
2018-Feb-18 09:00N 40°46' W 073°51'0 0.0
2018-Feb-18 08:30N 40°46' W 073°51'0 0.0
2018-Feb-18 08:00N 40°46' W 073°51'0 0.0
2018-Feb-18 07:18N 40°46' W 073°51'0 0.0
2018-Feb-18 07:00N 40°46' W 073°51'0 0.0
2018-Feb-18 06:30N 40°46' W 073°51'0 0.0
2018-Feb-18 05:48N 40°46' W 073°51'0 0.0
2018-Feb-18 05:30N 40°46' W 073°51'0 0.0
2018-Feb-18 05:00N 40°46' W 073°51'0 0.0
2018-Feb-18 04:30N 40°46' W 073°51'0 0.0
2018-Feb-18 04:00N 40°46' W 073°51'0 0.0
2018-Feb-18 03:30N 40°46' W 073°51'0 0.0
2018-Feb-18 02:54N 40°46' W 073°51'0 0.0
2018-Feb-18 02:30N 40°46' W 073°51'0 0.0
2018-Feb-18 02:00N 40°46' W 073°51'0 0.0
2018-Feb-18 01:27N 40°46' W 073°51'0 0.0
2018-Feb-17 22:57N 40°46' W 073°51'0 0.0
2018-Feb-17 15:45N 40°46' W 073°51'0 0.0
2018-Feb-17 15:27N 40°46' W 073°51'0 0.0
2018-Feb-17 14:57N 40°46' W 073°51'0 0.0
2018-Feb-17 14:27N 40°46' W 073°51'0 0.0
2018-Feb-17 12:57N 40°46' W 073°51'0 0.0
2018-Feb-17 12:09N 40°46' W 073°51'0 0.0
2018-Feb-17 11:39N 40°46' W 073°51'0 0.0
2018-Feb-17 11:21N 40°46' W 073°51'0 0.0
2018-Feb-17 10:57N 40°46' W 073°51'0 0.0
2018-Feb-17 10:28N 40°46' W 073°51'0 0.0
2018-Feb-17 09:58N 40°46' W 073°51'0 0.0
2018-Feb-17 09:28N 40°46' W 073°51'0 0.0
2018-Feb-17 08:58N 40°46' W 073°51'0 0.0
2018-Feb-17 08:28N 40°46' W 073°51'0 0.0
2018-Feb-17 07:55N 40°46' W 073°51'0 0.0
2018-Feb-17 07:28N 40°46' W 073°51'0 0.0
2018-Feb-17 06:55N 40°46' W 073°51'0 0.0
2018-Feb-17 06:28N 40°46' W 073°51'0 0.0
2018-Feb-17 05:58N 40°46' W 073°51'0 0.0
2018-Feb-17 05:25N 40°46' W 073°51'0 0.0
2018-Feb-17 04:58N 40°46' W 073°51'0 0.0
2018-Feb-17 04:28N 40°46' W 073°51'0 0.0
2018-Feb-17 03:58N 40°46' W 073°51'0 0.0
2018-Feb-17 03:28N 40°46' W 073°51'0 0.0
2018-Feb-17 02:58N 40°46' W 073°51'0 0.0
2018-Feb-17 02:28N 40°46' W 073°51'0 0.1
2018-Feb-17 01:58N 40°46' W 073°51'2 4.4
2018-Feb-17 01:30N 40°48' W 073°53'3 6.9
2018-Feb-17 01:00N 40°46' W 073°57'4 7.5
2018-Feb-17 00:30N 40°43' W 073°58'3 6.5
2018-Feb-17 00:00N 40°41' W 074°02'2 4.6
2018-Feb-16 23:30N 40°39' W 074°04'2 3.9
2018-Feb-16 22:59N 40°39' W 074°07'2 3.6
2018-Feb-16 22:29N 40°39' W 074°09'2 3.9
2018-Feb-16 22:00N 40°38' W 074°12'0 0.7
2018-Feb-16 21:30N 40°39' W 074°11'2 4.8
2018-Feb-16 21:00N 40°39' W 074°08'2 4.6
2018-Feb-16 20:30N 40°39' W 074°05'2 5.0
2018-Feb-16 20:00N 40°40' W 074°02'3 5.7
2018-Feb-16 19:30N 40°42' W 073°60'3 5.9
2018-Feb-16 19:00N 40°45' W 073°58'4 7.2
2018-Feb-16 18:30N 40°48' W 073°55'2 4.6
2018-Feb-16 18:00N 40°48' W 073°52'2 3.2
2018-Feb-16 17:30N 40°46' W 073°51'0 0.0
2018-Feb-16 16:23N 40°46' W 073°51'0 0.0
2018-Feb-16 15:20N 40°46' W 073°51'0 0.0
2018-Feb-16 14:56N 40°46' W 073°51'0 0.0
2018-Feb-16 14:23N 40°46' W 073°51'0 0.0
2018-Feb-16 13:56N 40°46' W 073°51'0 0.0
2018-Feb-16 12:38N 40°46' W 073°51'0 0.0
2018-Feb-16 12:20N 40°46' W 073°51'0 0.0
2018-Feb-16 11:56N 40°46' W 073°51'0 0.0
2018-Feb-16 11:26N 40°46' W 073°51'0 0.0
2018-Feb-16 10:56N 40°46' W 073°51'0 0.0
2018-Feb-16 10:26N 40°46' W 073°51'0 0.0
2018-Feb-16 09:56N 40°46' W 073°51'0 0.0
2018-Feb-16 09:14N 40°46' W 073°51'0 0.0
2018-Feb-16 08:59N 40°46' W 073°51'0 0.0
2018-Feb-16 08:30N 40°46' W 073°51'0 0.0
2018-Feb-16 07:44N 40°46' W 073°51'0 0.0
2018-Feb-16 07:26N 40°46' W 073°51'0 0.0
2018-Feb-16 06:53N 40°46' W 073°51'0 0.0
2018-Feb-16 06:23N 40°46' W 073°51'0 0.0
2018-Feb-16 05:59N 40°46' W 073°51'0 0.0
2018-Feb-16 05:29N 40°46' W 073°51'0 0.0
2018-Feb-16 04:54N 40°46' W 073°51'0 0.0
2018-Feb-16 04:23N 40°46' W 073°51'0 0.0
2018-Feb-16 03:59N 40°46' W 073°51'0 0.0
2018-Feb-16 02:50N 40°46' W 073°51'0 0.0
2018-Feb-16 02:26N 40°46' W 073°51'0 0.0
2018-Feb-16 01:53N 40°46' W 073°51'0 0.0
2018-Feb-16 01:29N 40°46' W 073°51'1 2.4
2018-Feb-16 01:00N 40°47' W 073°52'2 4.3
2018-Feb-16 00:30N 40°48' W 073°54'4 8.5
2018-Feb-16 00:00N 40°45' W 073°58'3 6.7
2018-Feb-15 23:30N 40°42' W 074°00'3 6.2
2018-Feb-15 23:00N 40°39' W 074°03'3 4.8
2018-Feb-15 22:29N 40°39' W 074°06'2 4.2
2018-Feb-15 21:59N 40°39' W 074°09'2 3.9
2018-Feb-15 21:29N 40°38' W 074°12'0 0.1
2018-Feb-15 21:00N 40°38' W 074°12'2 4.0
2018-Feb-15 20:30N 40°39' W 074°09'3 5.1
2018-Feb-15 20:00N 40°39' W 074°06'2 5.0
2018-Feb-15 19:30N 40°40' W 074°03'3 5.6
2018-Feb-15 19:00N 40°42' W 074°00'3 5.4
2018-Feb-15 18:30N 40°44' W 073°58'4 7.3
2018-Feb-15 17:59N 40°47' W 073°55'2 5.0
2018-Feb-15 17:30N 40°48' W 073°52'2 0.2
2018-Feb-15 09:38N 40°46' W 073°51'0 0.0
2018-Feb-15 09:20N 40°46' W 073°51'0 0.0
2018-Feb-15 08:57N 40°46' W 073°51'0 0.0
2018-Feb-15 05:44N 40°46' W 073°51'0 0.0
2018-Feb-15 05:20N 40°46' W 073°51'0 0.0
2018-Feb-15 03:32N 40°46' W 073°51'0 0.0
2018-Feb-15 03:14N 40°46' W 073°51'0 0.0
2018-Feb-15 02:47N 40°46' W 073°51'0 0.0
2018-Feb-15 01:38N 40°46' W 073°51'0 0.0
2018-Feb-15 01:21N 40°46' W 073°51'0 0.7
2018-Feb-15 01:00N 40°46' W 073°51'2 4.0
2018-Feb-15 00:30N 40°48' W 073°53'3 6.2
2018-Feb-14 23:57N 40°46' W 073°57'3 6.8
2018-Feb-14 23:30N 40°43' W 073°58'3 6.5
2018-Feb-14 23:00N 40°41' W 074°01'3 5.2
2018-Feb-14 22:30N 40°39' W 074°03'2 4.4
2018-Feb-14 22:00N 40°39' W 074°06'2 3.6
2018-Feb-14 21:30N 40°38' W 074°09'2 4.6
2018-Feb-14 21:00N 40°38' W 074°12'0 0.0
2018-Feb-14 20:30N 40°38' W 074°12'2 3.7
2018-Feb-14 20:00N 40°39' W 074°09'3 5.3
2018-Feb-14 19:30N 40°39' W 074°06'3 5.0
2018-Feb-14 19:00N 40°40' W 074°03'3 6.0
2018-Feb-14 18:30N 40°42' W 074°00'3 5.9
2018-Feb-14 18:00N 40°45' W 073°58'4 7.6
2018-Feb-14 17:30N 40°48' W 073°55'2 4.3
2018-Feb-14 17:00N 40°48' W 073°52'2 3.3
2018-Feb-14 16:28N 40°46' W 073°51'2 2.5
2018-Feb-14 15:42N 40°48' W 073°52'1 3.4
2018-Feb-14 15:30N 40°47' W 073°52'2 1.1
2018-Feb-14 14:06N 40°46' W 073°51'0 2.5
2018-Feb-14 13:58N 40°46' W 073°51'0 0.0
2018-Feb-14 13:31N 40°46' W 073°51'0 0.0
2018-Feb-14 12:34N 40°46' W 073°51'0 0.1
2018-Feb-14 12:28N 40°46' W 073°51'0 0.0
2018-Feb-14 11:58N 40°46' W 073°51'0 0.0
2018-Feb-14 11:28N 40°46' W 073°51'0 0.0
2018-Feb-14 10:58N 40°46' W 073°51'0 0.0
2018-Feb-14 08:19N 40°46' W 073°51'0 0.0
2018-Feb-14 01:22N 40°46' W 073°51'0 0.0
2018-Feb-13 23:55N 40°46' W 073°51'1 2.1
2018-Feb-13 23:29N 40°47' W 073°52'2 4.6
2018-Feb-13 22:59N 40°48' W 073°54'4 8.3
2018-Feb-13 22:30N 40°45' W 073°58'3 6.7
2018-Feb-13 21:59N 40°42' W 074°00'3 5.9
2018-Feb-13 21:31N 40°40' W 074°03'2 4.6
2018-Feb-13 21:01N 40°39' W 074°05'2 4.0
2018-Feb-13 20:28N 40°39' W 074°08'2 4.3
2018-Feb-13 20:00N 40°39' W 074°11'1 1.6
2018-Feb-13 19:27N 40°38' W 074°12'0 0.0
2018-Feb-13 19:00N 40°38' W 074°12'  

Dump ship's entire track history